Weather at Bora Bora Airport

Public forecast

Using degrees Celsius for public forecast. Weather courtesy of forecast.io.

Closest aviation weather report (METAR) to Bora Bora Airport

Closest report is Faa'a International Airport, 140.0 nm (259.2 km) ESE. Retrieved 2022/05/22 00:30 UTC (4 minutes ago):

NTAA 220030Z 10007KT 040V170 9999 VCSH FEW025 BKN050 29/21 Q1013 NOSIG

Closest aviation forecast (TAF) to Bora Bora Airport

Closest forecast is Faa'a International Airport, 140.0 nm (259.2 km) ESE. Retrieved 2022-05-22 00:07 UTC (27 minutes ago):

TAF NTAA 212300Z 2200/2306 04015KT 9999 FEW026 SCT046 BECMG 2205/2207 VRB03KT TEMPO 2221/2304 04015KT